sensor_id;sensor_type;location;lat;lon;timestamp;pressure;altitude;pressure_sealevel;temperature;humidity
51928;BME280;37953;52.806;18.270;2023-02-15T00:01:46;102371.09;;;3.83;100.00
51928;BME280;37953;52.806;18.270;2023-02-15T00:04:16;102376.22;;;3.83;100.00
51928;BME280;37953;52.806;18.270;2023-02-15T00:06:42;102370.09;;;3.81;100.00
51928;BME280;37953;52.806;18.270;2023-02-15T00:09:08;102373.59;;;3.81;100.00
51928;BME280;37953;52.806;18.270;2023-02-15T00:11:34;102374.34;;;3.80;100.00
51928;BME280;37953;52.806;18.270;2023-02-15T00:14:06;102371.63;;;3.77;100.00
51928;BME280;37953;52.806;18.270;2023-02-15T00:16:33;102359.53;;;3.76;100.00
51928;BME280;37953;52.806;18.270;2023-02-15T00:18:59;102361.13;;;3.74;100.00
51928;BME280;37953;52.806;18.270;2023-02-15T00:21:28;102362.72;;;3.72;100.00
51928;BME280;37953;52.806;18.270;2023-02-15T00:24:04;102358.28;;;3.70;100.00
51928;BME280;37953;52.806;18.270;2023-02-15T00:26:30;102361.66;;;3.69;100.00
51928;BME280;37953;52.806;18.270;2023-02-15T00:28:56;102364.03;;;3.65;100.00
51928;BME280;37953;52.806;18.270;2023-02-15T00:31:24;102365.63;;;3.63;100.00
51928;BME280;37953;52.806;18.270;2023-02-15T00:33:50;102369.78;;;3.61;100.00
51928;BME280;37953;52.806;18.270;2023-02-15T00:36:16;102366.22;;;3.59;100.00
51928;BME280;37953;52.806;18.270;2023-02-15T00:38:42;102367.91;;;3.59;100.00
51928;BME280;37953;52.806;18.270;2023-02-15T00:41:08;102366.03;;;3.56;100.00
51928;BME280;37953;52.806;18.270;2023-02-15T00:43:34;102366.03;;;3.56;100.00
51928;BME280;37953;52.806;18.270;2023-02-15T00:48:30;102363.38;;;3.55;100.00
51928;BME280;37953;52.806;18.270;2023-02-15T00:50:57;102364.25;;;3.55;100.00
51928;BME280;37953;52.806;18.270;2023-02-15T00:53:23;102364.25;;;3.55;100.00
51928;BME280;37953;52.806;18.270;2023-02-15T00:55:49;102366.81;;;3.55;100.00
51928;BME280;37953;52.806;18.270;2023-02-15T00:58:15;102367.75;;;3.56;100.00
51928;BME280;37953;52.806;18.270;2023-02-15T01:00:42;102365.06;;;3.54;100.00
51928;BME280;37953;52.806;18.270;2023-02-15T01:03:08;102365.84;;;3.53;100.00
51928;BME280;37953;52.806;18.270;2023-02-15T01:05:34;102358.94;;;3.52;100.00
51928;BME280;37953;52.806;18.270;2023-02-15T01:08:00;102364.84;;;3.51;100.00
51928;BME280;37953;52.806;18.270;2023-02-15T01:10:29;102361.41;;;3.51;100.00
51928;BME280;37953;52.806;18.270;2023-02-15T01:12:56;102357.06;;;3.50;100.00
51928;BME280;37953;52.806;18.270;2023-02-15T01:15:22;102359.53;;;3.48;100.00
51928;BME280;37953;52.806;18.270;2023-02-15T01:17:48;102357.75;;;3.47;100.00
51928;BME280;37953;52.806;18.270;2023-02-15T01:20:21;102356.75;;;3.45;100.00
51928;BME280;37953;52.806;18.270;2023-02-15T01:22:47;102354.13;;;3.43;100.00
51928;BME280;37953;52.806;18.270;2023-02-15T01:25:16;102353.25;;;3.43;100.00
51928;BME280;37953;52.806;18.270;2023-02-15T01:27:41;102349.75;;;3.42;100.00
51928;BME280;37953;52.806;18.270;2023-02-15T01:30:08;102341.06;;;3.40;100.00
51928;BME280;37953;52.806;18.270;2023-02-15T01:32:34;102340.19;;;3.40;100.00
51928;BME280;37953;52.806;18.270;2023-02-15T01:35:00;102338.44;;;3.39;100.00
51928;BME280;37953;52.806;18.270;2023-02-15T01:37:26;102337.50;;;3.38;100.00
51928;BME280;37953;52.806;18.270;2023-02-15T01:39:51;102334.06;;;3.38;100.00
51928;BME280;37953;52.806;18.270;2023-02-15T01:42:24;102334.88;;;3.37;100.00
51928;BME280;37953;52.806;18.270;2023-02-15T01:44:54;102325.38;;;3.36;100.00
51928;BME280;37953;52.806;18.270;2023-02-15T01:50:08;102324.41;;;3.34;100.00
51928;BME280;37953;52.806;18.270;2023-02-15T01:52:41;102323.41;;;3.32;100.00
51928;BME280;37953;52.806;18.270;2023-02-15T01:55:09;102318.00;;;3.27;100.00
51928;BME280;37953;52.806;18.270;2023-02-15T01:57:35;102316.84;;;3.22;100.00
51928;BME280;37953;52.806;18.270;2023-02-15T02:00:02;102313.06;;;3.17;100.00
51928;BME280;37953;52.806;18.270;2023-02-15T02:02:28;102311.22;;;3.14;100.00
51928;BME280;37953;52.806;18.270;2023-02-15T02:05:01;102325.44;;;3.09;100.00
51928;BME280;37953;52.806;18.270;2023-02-15T02:07:38;102320.81;;;3.03;100.00
51928;BME280;37953;52.806;18.270;2023-02-15T02:10:06;102314.41;;;2.97;100.00
51928;BME280;37953;52.806;18.270;2023-02-15T02:12:32;102313.19;;;2.92;100.00
51928;BME280;37953;52.806;18.270;2023-02-15T02:15:05;102315.47;;;2.87;100.00
51928;BME280;37953;52.806;18.270;2023-02-15T02:41:32;102315.19;;;2.82;100.00
51928;BME280;37953;52.806;18.270;2023-02-15T02:46:35;102307.69;;;2.85;100.00
51928;BME280;37953;52.806;18.270;2023-02-15T02:49:02;102305.31;;;2.89;100.00
51928;BME280;37953;52.806;18.270;2023-02-15T02:51:28;102303.75;;;2.91;100.00
51928;BME280;37953;52.806;18.270;2023-02-15T02:53:54;102302.34;;;2.96;100.00
51928;BME280;37953;52.806;18.270;2023-02-15T02:59:11;102296.59;;;3.00;100.00
51928;BME280;37953;52.806;18.270;2023-02-15T03:02:02;102294.25;;;3.03;100.00
51928;BME280;37953;52.806;18.270;2023-02-15T03:04:26;102291.75;;;3.04;100.00
51928;BME280;37953;52.806;18.270;2023-02-15T03:06:55;102297.88;;;3.06;100.00
51928;BME280;37953;52.806;18.270;2023-02-15T03:09:27;102298.78;;;3.07;100.00
51928;BME280;37953;52.806;18.270;2023-02-15T03:12:14;102299.78;;;3.09;100.00
51928;BME280;37953;52.806;18.270;2023-02-15T03:14:42;102292.13;;;3.11;100.00
51928;BME280;37953;52.806;18.270;2023-02-15T03:17:14;102291.38;;;3.12;100.00
51928;BME280;37953;52.806;18.270;2023-02-15T03:19:46;102300.94;;;3.14;100.00
51928;BME280;37953;52.806;18.270;2023-02-15T03:22:20;102291.53;;;3.15;100.00
51928;BME280;37953;52.806;18.270;2023-02-15T03:24:51;102295.91;;;3.16;100.00
51928;BME280;37953;52.806;18.270;2023-02-15T03:27:21;102289.06;;;3.16;100.00
51928;BME280;37953;52.806;18.270;2023-02-15T03:29:57;102297.75;;;3.18;100.00
51928;BME280;37953;52.806;18.270;2023-02-15T03:32:24;102295.09;;;3.17;100.00
51928;BME280;37953;52.806;18.270;2023-02-15T03:34:51;102295.09;;;3.17;100.00
51928;BME280;37953;52.806;18.270;2023-02-15T03:40:37;102297.56;;;3.15;100.00
51928;BME280;37953;52.806;18.270;2023-02-15T03:43:29;102300.13;;;3.15;100.00
51928;BME280;37953;52.806;18.270;2023-02-15T03:48:58;102289.97;;;3.17;100.00
51928;BME280;37953;52.806;18.270;2023-02-15T03:51:29;102299.47;;;3.18;100.00
51928;BME280;37953;52.806;18.270;2023-02-15T03:56:29;102295.97;;;3.17;100.00
51928;BME280;37953;52.806;18.270;2023-02-15T03:58:55;102287.50;;;3.18;100.00
51928;BME280;37953;52.806;18.270;2023-02-15T04:01:40;102283.25;;;3.19;100.00
51928;BME280;37953;52.806;18.270;2023-02-15T04:06:58;102282.34;;;3.18;100.00
51928;BME280;37953;52.806;18.270;2023-02-15T04:09:24;102272.97;;;3.19;100.00
51928;BME280;37953;52.806;18.270;2023-02-15T04:12:08;102276.41;;;3.19;100.00
51928;BME280;37953;52.806;18.270;2023-02-15T04:14:34;102279.97;;;3.21;100.00
51928;BME280;37953;52.806;18.270;2023-02-15T04:17:18;102274.06;;;3.22;100.00
51928;BME280;37953;52.806;18.270;2023-02-15T04:19:44;102271.59;;;3.24;100.00
51928;BME280;37953;52.806;18.270;2023-02-15T04:22:28;102271.59;;;3.24;100.00
51928;BME280;37953;52.806;18.270;2023-02-15T04:25:12;102262.19;;;3.24;100.00
51928;BME280;37953;52.806;18.270;2023-02-15T04:27:45;102259.72;;;3.26;100.00
51928;BME280;37953;52.806;18.270;2023-02-15T04:30:12;102260.59;;;3.26;100.00
51928;BME280;37953;52.806;18.270;2023-02-15T04:32:38;102257.22;;;3.28;100.00
51928;BME280;37953;52.806;18.270;2023-02-15T04:35:05;102259.78;;;3.28;100.00
51928;BME280;37953;52.806;18.270;2023-02-15T04:37:31;102264.94;;;3.28;100.00
51928;BME280;37953;52.806;18.270;2023-02-15T04:39:57;102266.72;;;3.29;100.00
51928;BME280;37953;52.806;18.270;2023-02-15T04:42:24;102266.72;;;3.29;100.00
51928;BME280;37953;52.806;18.270;2023-02-15T04:44:51;102257.22;;;3.28;100.00
51928;BME280;37953;52.806;18.270;2023-02-15T04:47:22;102259.03;;;3.29;100.00
51928;BME280;37953;52.806;18.270;2023-02-15T04:49:48;102249.63;;;3.29;100.00
51928;BME280;37953;52.806;18.270;2023-02-15T04:52:14;102248.75;;;3.29;100.00
51928;BME280;37953;52.806;18.270;2023-02-15T04:54:40;102260.72;;;3.28;100.00
51928;BME280;37953;52.806;18.270;2023-02-15T04:57:06;102258.91;;;3.27;100.00
51928;BME280;37953;52.806;18.270;2023-02-15T04:59:32;102266.63;;;3.27;100.00
51928;BME280;37953;52.806;18.270;2023-02-15T05:01:57;102269.19;;;3.27;100.00
51928;BME280;37953;52.806;18.270;2023-02-15T05:04:23;102263.94;;;3.25;100.00
51928;BME280;37953;52.806;18.270;2023-02-15T05:06:49;102260.50;;;3.25;100.00
51928;BME280;37953;52.806;18.270;2023-02-15T05:09:15;102262.97;;;3.23;100.00
51928;BME280;37953;52.806;18.270;2023-02-15T05:11:41;102263.78;;;3.22;100.00
51928;BME280;37953;52.806;18.270;2023-02-15T05:14:07;102262.78;;;3.20;100.00
51928;BME280;37953;52.806;18.270;2023-02-15T05:16:33;102259.25;;;3.18;100.00
51928;BME280;37953;52.806;18.270;2023-02-15T05:18:59;102260.03;;;3.17;100.00
51928;BME280;37953;52.806;18.270;2023-02-15T05:21:24;102264.28;;;3.17;100.00
51928;BME280;37953;52.806;18.270;2023-02-15T05:23:50;102261.59;;;3.15;100.00
51928;BME280;37953;52.806;18.270;2023-02-15T05:26:17;102261.53;;;3.14;100.00
51928;BME280;37953;52.806;18.270;2023-02-15T05:29:02;102263.19;;;3.13;100.00
51928;BME280;37953;52.806;18.270;2023-02-15T05:31:28;102260.56;;;3.12;100.00
51928;BME280;37953;52.806;18.270;2023-02-15T05:33:54;102261.44;;;3.12;100.00
51928;BME280;37953;52.806;18.270;2023-02-15T05:36:20;102255.41;;;3.12;100.00
51928;BME280;37953;52.806;18.270;2023-02-15T05:38:46;102258.88;;;3.12;100.00
51928;BME280;37953;52.806;18.270;2023-02-15T05:41:11;102258.06;;;3.13;100.00
51928;BME280;37953;52.806;18.270;2023-02-15T05:43:37;102256.47;;;3.15;100.00
51928;BME280;37953;52.806;18.270;2023-02-15T05:46:03;102255.78;;;3.18;100.00
51928;BME280;37953;52.806;18.270;2023-02-15T05:48:30;102249.94;;;3.20;100.00
51928;BME280;37953;52.806;18.270;2023-02-15T05:51:03;102252.63;;;3.22;100.00
51928;BME280;37953;52.806;18.270;2023-02-15T05:53:47;102251.03;;;3.24;100.00
51928;BME280;37953;52.806;18.270;2023-02-15T05:56:13;102253.69;;;3.25;100.00
51928;BME280;37953;52.806;18.270;2023-02-15T05:58:40;102252.03;;;3.26;100.00
51928;BME280;37953;52.806;18.270;2023-02-15T06:01:13;102248.66;;;3.27;100.00
51928;BME280;37953;52.806;18.270;2023-02-15T06:03:39;102248.75;;;3.29;100.00
51928;BME280;37953;52.806;18.270;2023-02-15T06:06:06;102251.38;;;3.30;100.00
51928;BME280;37953;52.806;18.270;2023-02-15T06:08:32;102257.50;;;3.32;100.00
51928;BME280;37953;52.806;18.270;2023-02-15T06:10:59;102250.72;;;3.33;100.00
51928;BME280;37953;52.806;18.270;2023-02-15T06:13:25;102251.47;;;3.32;100.00
51928;BME280;37953;52.806;18.270;2023-02-15T06:15:50;102255.03;;;3.34;100.00
51928;BME280;37953;52.806;18.270;2023-02-15T06:18:16;102253.34;;;3.34;100.00
51928;BME280;37953;52.806;18.270;2023-02-15T06:20:44;102254.25;;;3.35;100.00
51928;BME280;37953;52.806;18.270;2023-02-15T06:23:10;102250.00;;;3.35;100.00
51928;BME280;37953;52.806;18.270;2023-02-15T06:25:36;102260.38;;;3.37;100.00
51928;BME280;37953;52.806;18.270;2023-02-15T06:28:02;102262.84;;;3.35;100.00
51928;BME280;37953;52.806;18.270;2023-02-15T06:30:29;102259.47;;;3.36;100.00
51928;BME280;37953;52.806;18.270;2023-02-15T06:32:55;102259.56;;;3.38;100.00
51928;BME280;37953;52.806;18.270;2023-02-15T06:35:20;102264.81;;;3.39;100.00
51928;BME280;37953;52.806;18.270;2023-02-15T06:37:47;102267.38;;;3.39;100.00
51928;BME280;37953;52.806;18.270;2023-02-15T06:40:14;102266.50;;;3.39;100.00
51928;BME280;37953;52.806;18.270;2023-02-15T06:42:40;102265.69;;;3.40;100.00
51928;BME280;37953;52.806;18.270;2023-02-15T06:45:11;102267.38;;;3.39;100.00
51928;BME280;37953;52.806;18.270;2023-02-15T06:47:37;102270.06;;;3.41;100.00
51928;BME280;37953;52.806;18.270;2023-02-15T06:50:04;102259.78;;;3.41;100.00
51928;BME280;37953;52.806;18.270;2023-02-15T06:52:30;102263.31;;;3.43;100.00
51928;BME280;37953;52.806;18.270;2023-02-15T06:54:56;102260.75;;;3.43;100.00
51928;BME280;37953;52.806;18.270;2023-02-15T06:57:22;102257.38;;;3.44;100.00
51928;BME280;37953;52.806;18.270;2023-02-15T06:59:47;102251.44;;;3.45;100.00
51928;BME280;37953;52.806;18.270;2023-02-15T07:02:14;102256.66;;;3.46;100.00
51928;BME280;37953;52.806;18.270;2023-02-15T07:04:39;102258.47;;;3.47;100.00
51928;BME280;37953;52.806;18.270;2023-02-15T07:07:09;102249.94;;;3.49;100.00
51928;BME280;37953;52.806;18.270;2023-02-15T07:09:35;102249.22;;;3.51;100.00
51928;BME280;37953;52.806;18.270;2023-02-15T07:12:08;102245.97;;;3.54;100.00
51928;BME280;37953;52.806;18.270;2023-02-15T07:14:56;102238.34;;;3.55;100.00
51928;BME280;37953;52.806;18.270;2023-02-15T07:17:23;102238.44;;;3.57;100.00
51928;BME280;37953;52.806;18.270;2023-02-15T07:19:52;102238.53;;;3.58;100.00
51928;BME280;37953;52.806;18.270;2023-02-15T07:22:18;102239.53;;;3.60;100.00
51928;BME280;37953;52.806;18.270;2023-02-15T07:24:44;102239.59;;;3.62;100.00
51928;BME280;37953;52.806;18.270;2023-02-15T07:27:10;102237.22;;;3.65;100.00
51928;BME280;37953;52.806;18.270;2023-02-15T07:29:35;102237.31;;;3.66;100.00
51928;BME280;37953;52.806;18.270;2023-02-15T07:32:02;102230.59;;;3.69;100.00
51928;BME280;37953;52.806;18.270;2023-02-15T07:34:27;102226.44;;;3.71;100.00
51928;BME280;37953;52.806;18.270;2023-02-15T07:36:53;102229.88;;;3.71;100.00
51928;BME280;37953;52.806;18.270;2023-02-15T07:39:19;102225.72;;;3.73;100.00
51928;BME280;37953;52.806;18.270;2023-02-15T07:41:45;102224.13;;;3.75;100.00
51928;BME280;37953;52.806;18.270;2023-02-15T07:44:14;102222.53;;;3.77;100.00
51928;BME280;37953;52.806;18.270;2023-02-15T07:46:40;102225.16;;;3.79;100.00
51928;BME280;37953;52.806;18.270;2023-02-15T07:49:06;102216.75;;;3.81;100.00
51928;BME280;37953;52.806;18.270;2023-02-15T07:51:32;102222.78;;;3.82;100.00
51928;BME280;37953;52.806;18.270;2023-02-15T07:53:57;102220.31;;;3.83;100.00
51928;BME280;37953;52.806;18.270;2023-02-15T07:56:24;102208.44;;;3.85;100.00
51928;BME280;37953;52.806;18.270;2023-02-15T07:58:49;102205.06;;;3.86;100.00
51928;BME280;37953;52.806;18.270;2023-02-15T08:01:28;102204.28;;;3.87;100.00
51928;BME280;37953;52.806;18.270;2023-02-15T08:03:58;102194.06;;;3.89;100.00
51928;BME280;37953;52.806;18.270;2023-02-15T08:06:26;102191.69;;;3.92;100.00
51928;BME280;37953;52.806;18.270;2023-02-15T08:08:52;102197.69;;;3.93;100.00
51928;BME280;37953;52.806;18.270;2023-02-15T08:11:20;102195.22;;;3.94;100.00
51928;BME280;37953;52.806;18.270;2023-02-15T08:16:39;102201.41;;;3.98;100.00
51928;BME280;37953;52.806;18.270;2023-02-15T08:19:12;102189.53;;;4.00;100.00
51928;BME280;37953;52.806;18.270;2023-02-15T08:21:40;102186.25;;;4.02;100.00
51928;BME280;37953;52.806;18.270;2023-02-15T08:24:06;102178.63;;;4.04;100.00
51928;BME280;37953;52.806;18.270;2023-02-15T08:26:38;102182.09;;;4.04;100.00
51928;BME280;37953;52.806;18.270;2023-02-15T08:29:05;102175.34;;;4.06;100.00
51928;BME280;37953;52.806;18.270;2023-02-15T08:31:32;102176.31;;;4.08;100.00
51928;BME280;37953;52.806;18.270;2023-02-15T08:33:58;102172.94;;;4.10;100.00
51928;BME280;37953;52.806;18.270;2023-02-15T08:36:26;102176.41;;;4.10;100.00
51928;BME280;37953;52.806;18.270;2023-02-15T08:38:57;102174.78;;;4.12;100.00
51928;BME280;37953;52.806;18.270;2023-02-15T08:41:24;102178.25;;;4.13;100.00
51928;BME280;37953;52.806;18.270;2023-02-15T08:43:54;102168.06;;;4.14;100.00
51928;BME280;37953;52.806;18.270;2023-02-15T08:46:20;102169.91;;;4.17;100.00
51928;BME280;37953;52.806;18.270;2023-02-15T08:48:46;102170.88;;;4.19;100.00
51928;BME280;37953;52.806;18.270;2023-02-15T08:51:17;102164.94;;;4.20;100.00
51928;BME280;37953;52.806;18.270;2023-02-15T08:53:44;102154.75;;;4.21;100.00
51928;BME280;37953;52.806;18.270;2023-02-15T08:56:10;102152.19;;;4.21;100.00
51928;BME280;37953;52.806;18.270;2023-02-15T08:58:36;102159.97;;;4.23;100.00
51928;BME280;37953;52.806;18.270;2023-02-15T09:01:09;102146.31;;;4.24;100.00
51928;BME280;37953;52.806;18.270;2023-02-15T09:03:35;102139.56;;;4.26;100.00
51928;BME280;37953;52.806;18.270;2023-02-15T09:06:02;102138.75;;;4.27;100.00
51928;BME280;37953;52.806;18.270;2023-02-15T09:08:28;102144.88;;;4.29;100.00
51928;BME280;37953;52.806;18.270;2023-02-15T09:11:03;102136.38;;;4.30;100.00
51928;BME280;37953;52.806;18.270;2023-02-15T09:13:29;102145.06;;;4.32;100.00
51928;BME280;37953;52.806;18.270;2023-02-15T09:15:59;102139.19;;;4.35;100.00
51928;BME280;37953;52.806;18.270;2023-02-15T09:18:30;102136.72;;;4.36;100.00
51928;BME280;37953;52.806;18.270;2023-02-15T09:21:03;102135.88;;;4.37;100.00
51928;BME280;37953;52.806;18.270;2023-02-15T09:23:39;102130.84;;;4.39;100.00
51928;BME280;37953;52.806;18.270;2023-02-15T09:26:06;102130.09;;;4.41;100.00
51928;BME280;37953;52.806;18.270;2023-02-15T09:28:32;102130.09;;;4.41;100.00
51928;BME280;37953;52.806;18.270;2023-02-15T09:31:17;102129.38;;;4.44;100.00
51928;BME280;37953;52.806;18.270;2023-02-15T09:33:44;102130.34;;;4.46;100.00
51928;BME280;37953;52.806;18.270;2023-02-15T09:36:15;102132.13;;;4.47;100.00
51928;BME280;37953;52.806;18.270;2023-02-15T09:38:41;102130.44;;;4.47;100.00
51928;BME280;37953;52.806;18.270;2023-02-15T09:49:09;102128.94;;;4.51;100.00
51928;BME280;37953;52.806;18.270;2023-02-15T09:57:20;102120.47;;;4.54;100.00
51928;BME280;37953;52.806;18.270;2023-02-15T09:59:53;102115.34;;;4.54;100.00
51928;BME280;37953;52.806;18.270;2023-02-15T10:02:27;102110.28;;;4.55;100.00
51928;BME280;37953;52.806;18.270;2023-02-15T10:07:59;102109.38;;;4.55;100.00
51928;BME280;37953;52.806;18.270;2023-02-15T10:13:15;102116.41;;;4.57;100.00
51928;BME280;37953;52.806;18.270;2023-02-15T10:28:50;102083.00;;;4.59;100.00
51928;BME280;37953;52.806;18.270;2023-02-15T10:31:27;102086.53;;;4.61;100.00
51928;BME280;37953;52.806;18.270;2023-02-15T10:33:58;102076.25;;;4.61;100.00
51928;BME280;37953;52.806;18.270;2023-02-15T10:47:26;102067.88;;;4.65;100.00
51928;BME280;37953;52.806;18.270;2023-02-15T10:49:59;102067.88;;;4.65;100.00
51928;BME280;37953;52.806;18.270;2023-02-15T10:57:29;102067.16;;;4.67;100.00
51928;BME280;37953;52.806;18.270;2023-02-15T11:07:54;102055.19;;;4.68;100.00
51928;BME280;37953;52.806;18.270;2023-02-15T11:13:11;102056.31;;;4.73;100.00
51928;BME280;37953;52.806;18.270;2023-02-15T11:15:45;102051.06;;;4.72;100.00
51928;BME280;37953;52.806;18.270;2023-02-15T11:18:28;102046.81;;;4.72;100.00
51928;BME280;37953;52.806;18.270;2023-02-15T11:21:11;102040.84;;;4.73;100.00
51928;BME280;37953;52.806;18.270;2023-02-15T11:23:40;102043.44;;;4.73;100.00
51928;BME280;37953;52.806;18.270;2023-02-15T11:31:41;102036.66;;;4.75;100.00
51928;BME280;37953;52.806;18.270;2023-02-15T11:34:34;102033.22;;;4.75;100.00
51928;BME280;37953;52.806;18.270;2023-02-15T11:37:07;102021.22;;;4.75;100.00
51928;BME280;37953;52.806;18.270;2023-02-15T11:39:34;102016.06;;;4.75;100.00
51928;BME280;37953;52.806;18.270;2023-02-15T11:42:01;102017.78;;;4.75;100.00
51928;BME280;37953;52.806;18.270;2023-02-15T11:47:14;102012.69;;;4.76;100.00
51928;BME280;37953;52.806;18.270;2023-02-15T11:49:40;102015.34;;;4.78;100.00
51928;BME280;37953;52.806;18.270;2023-02-15T11:52:10;102014.56;;;4.79;100.00
51928;BME280;37953;52.806;18.270;2023-02-15T11:54:42;102010.28;;;4.79;100.00
51928;BME280;37953;52.806;18.270;2023-02-15T11:57:18;102005.13;;;4.79;100.00
51928;BME280;37953;52.806;18.270;2023-02-15T11:59:53;101999.97;;;4.79;100.00
51928;BME280;37953;52.806;18.270;2023-02-15T12:02:22;102000.84;;;4.80;100.00
51928;BME280;37953;52.806;18.270;2023-02-15T12:04:56;102000.84;;;4.80;100.00
51928;BME280;37953;52.806;18.270;2023-02-15T12:07:28;101998.28;;;4.80;100.00
51928;BME280;37953;52.806;18.270;2023-02-15T12:09:59;101996.59;;;4.80;100.00
51928;BME280;37953;52.806;18.270;2023-02-15T12:12:38;101994.00;;;4.80;100.00
51928;BME280;37953;52.806;18.270;2023-02-15T12:15:05;101998.38;;;4.81;100.00
51928;BME280;37953;52.806;18.270;2023-02-15T12:22:54;101983.78;;;4.82;100.00
51928;BME280;37953;52.806;18.270;2023-02-15T12:30:48;101984.84;;;4.85;100.00
51928;BME280;37953;52.806;18.270;2023-02-15T12:33:30;101975.41;;;4.86;100.00
51928;BME280;37953;52.806;18.270;2023-02-15T12:36:09;101971.16;;;4.86;100.00
51928;BME280;37953;52.806;18.270;2023-02-15T12:38:43;101970.28;;;4.86;100.00
51928;BME280;37953;52.806;18.270;2023-02-15T12:41:30;101973.72;;;4.86;100.00
51928;BME280;37953;52.806;18.270;2023-02-15T12:44:06;101963.50;;;4.88;100.00
51928;BME280;37953;52.806;18.270;2023-02-15T12:46:32;101960.94;;;4.88;100.00
51928;BME280;37953;52.806;18.270;2023-02-15T12:49:14;101948.94;;;4.88;100.00
51928;BME280;37953;52.806;18.270;2023-02-15T12:51:45;101951.59;;;4.90;100.00
51928;BME280;37953;52.806;18.270;2023-02-15T12:56:56;101945.69;;;4.93;100.00
51928;BME280;37953;52.806;18.270;2023-02-15T12:59:23;101941.50;;;4.95;100.00
51928;BME280;37953;52.806;18.270;2023-02-15T13:01:49;101938.16;;;4.96;100.00
51928;BME280;37953;52.806;18.270;2023-02-15T13:04:23;101939.09;;;4.98;100.00
51928;BME280;37953;52.806;18.270;2023-02-15T13:06:54;101930.56;;;4.99;100.00
51928;BME280;37953;52.806;18.270;2023-02-15T13:09:26;101928.06;;;5.00;100.00
51928;BME280;37953;52.806;18.270;2023-02-15T13:14:45;101917.75;;;5.00;100.00
51928;BME280;37953;52.806;18.270;2023-02-15T13:17:11;101926.44;;;5.02;100.00
51928;BME280;37953;52.806;18.270;2023-02-15T13:19:42;101921.22;;;5.01;100.00
51928;BME280;37953;52.806;18.270;2023-02-15T13:22:12;101919.59;;;5.03;100.00
51928;BME280;37953;52.806;18.270;2023-02-15T13:24:41;101911.00;;;5.02;100.00
51928;BME280;37953;52.806;18.270;2023-02-15T13:27:14;101908.50;;;5.04;100.00
51928;BME280;37953;52.806;18.270;2023-02-15T13:29:41;101912.75;;;5.03;100.00
51928;BME280;37953;52.806;18.270;2023-02-15T13:34:40;101905.97;;;5.05;100.00
51928;BME280;37953;52.806;18.270;2023-02-15T13:37:19;101912.81;;;5.05;100.00
51928;BME280;37953;52.806;18.270;2023-02-15T13:39:55;101912.03;;;5.06;100.00
51928;BME280;37953;52.806;18.270;2023-02-15T13:42:27;101915.50;;;5.06;100.00
51928;BME280;37953;52.806;18.270;2023-02-15T13:45:00;101906.06;;;5.07;100.00
51928;BME280;37953;52.806;18.270;2023-02-15T13:47:36;101906.06;;;5.07;100.00
51928;BME280;37953;52.806;18.270;2023-02-15T13:50:25;101911.28;;;5.08;100.00
51928;BME280;37953;52.806;18.270;2023-02-15T13:58:10;101900.25;;;5.11;100.00
51928;BME280;37953;52.806;18.270;2023-02-15T14:08:54;101893.41;;;5.12;100.00
51928;BME280;37953;52.806;18.270;2023-02-15T14:16:44;101877.28;;;5.16;100.00
51928;BME280;37953;52.806;18.270;2023-02-15T14:19:25;101869.56;;;5.16;100.00
51928;BME280;37953;52.806;18.270;2023-02-15T14:21:59;101870.44;;;5.16;100.00
51928;BME280;37953;52.806;18.270;2023-02-15T14:29:56;101868.00;;;5.19;100.00
51928;BME280;37953;52.806;18.270;2023-02-15T14:35:17;101862.03;;;5.20;100.00
51928;BME280;37953;52.806;18.270;2023-02-15T14:37:49;101860.38;;;5.21;100.00
51928;BME280;37953;52.806;18.270;2023-02-15T14:45:54;101860.38;;;5.21;100.00
51928;BME280;37953;52.806;18.270;2023-02-15T14:50:52;101858.66;;;5.21;100.00
51928;BME280;37953;52.806;18.270;2023-02-15T15:01:33;101851.72;;;5.20;100.00
51928;BME280;37953;52.806;18.270;2023-02-15T15:04:21;101856.88;;;5.20;100.00
51928;BME280;37953;52.806;18.270;2023-02-15T15:06:57;101850.84;;;5.20;100.00
51928;BME280;37953;52.806;18.270;2023-02-15T15:09:32;101850.84;;;5.20;100.00
51928;BME280;37953;52.806;18.270;2023-02-15T15:14:43;101849.97;;;5.19;100.00
51928;BME280;37953;52.806;18.270;2023-02-15T15:22:12;101844.66;;;5.16;100.00
51928;BME280;37953;52.806;18.270;2023-02-15T15:32:39;101821.81;;;5.04;100.00
51928;BME280;37953;52.806;18.270;2023-02-15T15:35:13;101822.56;;;5.02;100.00
51928;BME280;37953;52.806;18.270;2023-02-15T15:50:54;101809.22;;;4.93;100.00
51928;BME280;37953;52.806;18.270;2023-02-15T15:53:37;101800.63;;;4.92;100.00
51928;BME280;37953;52.806;18.270;2023-02-15T15:56:07;101795.41;;;4.90;100.00
51928;BME280;37953;52.806;18.270;2023-02-15T15:58:36;101791.06;;;4.89;100.00
51928;BME280;37953;52.806;18.270;2023-02-15T16:01:09;101796.22;;;4.89;100.00
51928;BME280;37953;52.806;18.270;2023-02-15T16:03:50;101790.13;;;4.87;100.00
51928;BME280;37953;52.806;18.270;2023-02-15T16:11:46;101795.09;;;4.84;100.00
51928;BME280;37953;52.806;18.270;2023-02-15T16:14:17;101790.78;;;4.83;100.00
51928;BME280;37953;52.806;18.270;2023-02-15T16:16:55;101788.19;;;4.83;100.00
51928;BME280;37953;52.806;18.270;2023-02-15T16:19:22;101781.28;;;4.82;100.00
51928;BME280;37953;52.806;18.270;2023-02-15T16:21:53;101776.94;;;4.81;100.00
51928;BME280;37953;52.806;18.270;2023-02-15T16:29:55;101779.34;;;4.78;100.00
51928;BME280;37953;52.806;18.270;2023-02-15T16:32:24;101773.34;;;4.78;100.00